createdAt,value
2019-01-21T00:00:20.430Z,-3.30
2019-01-21T00:02:49.111Z,-3.30
2019-01-21T00:05:17.658Z,-3.30
2019-01-21T00:07:46.213Z,-3.30
2019-01-21T00:10:14.827Z,-3.40
2019-01-21T00:12:43.392Z,-3.30
2019-01-21T00:15:12.066Z,-3.40
2019-01-21T00:17:40.688Z,-3.40
2019-01-21T00:20:09.393Z,-3.40
2019-01-21T00:22:37.999Z,-3.40
2019-01-21T00:25:07.179Z,-3.50
2019-01-21T00:27:35.738Z,-3.70
2019-01-21T00:30:06.985Z,-3.70
2019-01-21T00:32:35.522Z,-3.90
2019-01-21T00:35:05.831Z,-3.90
2019-01-21T00:37:34.371Z,-3.90
2019-01-21T00:40:03.376Z,-4.00
2019-01-21T00:42:31.926Z,-4.00
2019-01-21T00:45:00.489Z,-4.00
2019-01-21T00:47:29.986Z,-4.00
2019-01-21T00:49:58.815Z,-4.00
2019-01-21T00:52:27.354Z,-4.10
2019-01-21T00:54:55.895Z,-4.10
2019-01-21T00:57:24.462Z,-4.20
2019-01-21T00:59:53.071Z,-4.20
2019-01-21T01:02:21.771Z,-4.30
2019-01-21T01:04:50.311Z,-4.30
2019-01-21T01:07:19.023Z,-4.40
2019-01-21T01:09:47.639Z,-4.50
2019-01-21T01:12:16.198Z,-4.50
2019-01-21T01:14:44.884Z,-4.50
2019-01-21T01:17:13.453Z,-4.50
2019-01-21T01:19:41.985Z,-4.50
2019-01-21T01:22:10.674Z,-4.60
2019-01-21T01:24:39.284Z,-4.60
2019-01-21T01:27:07.922Z,-4.60
2019-01-21T01:29:36.523Z,-4.60
2019-01-21T01:32:05.143Z,-4.70
2019-01-21T01:34:33.707Z,-4.80
2019-01-21T01:37:02.248Z,-4.90
2019-01-21T01:39:30.823Z,-4.90
2019-01-21T01:41:59.530Z,-4.90
2019-01-21T01:44:28.506Z,-5.00
2019-01-21T01:46:57.134Z,-5.10
2019-01-21T01:49:25.745Z,-5.10
2019-01-21T01:51:54.379Z,-5.20
2019-01-21T01:54:23.183Z,-5.30
2019-01-21T01:56:52.051Z,-5.40
2019-01-21T01:59:20.659Z,-5.40
2019-01-21T02:01:49.360Z,-5.50
2019-01-21T02:04:17.898Z,-5.50
2019-01-21T02:06:46.439Z,-5.50
2019-01-21T02:09:15.075Z,-5.50
2019-01-21T02:11:43.682Z,-5.60
2019-01-21T02:14:12.293Z,-5.60
2019-01-21T02:16:40.863Z,-5.60
2019-01-21T02:19:09.394Z,-5.70
2019-01-21T02:21:39.684Z,-5.70
2019-01-21T02:24:08.514Z,-5.80
2019-01-21T02:26:40.139Z,-5.80
2019-01-21T02:29:11.456Z,-5.90
2019-01-21T02:31:48.883Z,-6.00
2019-01-21T02:34:20.837Z,-6.10
2019-01-21T02:37:27.393Z,-6.10
2019-01-21T02:40:05.139Z,-6.10
2019-01-21T02:42:42.739Z,-6.10
2019-01-21T02:45:17.407Z,-6.10
2019-01-21T02:47:51.965Z,-6.10
2019-01-21T02:50:42.024Z,-6.20
2019-01-21T02:53:25.454Z,-6.30
2019-01-21T02:55:59.986Z,-6.30
2019-01-21T02:58:43.511Z,-6.40
2019-01-21T03:01:37.905Z,-6.40
2019-01-21T03:04:38.458Z,-6.40
2019-01-21T03:07:19.324Z,-6.40
2019-01-21T03:09:56.554Z,-6.40
2019-01-21T03:12:28.203Z,-6.50
2019-01-21T03:15:22.491Z,-6.50
2019-01-21T03:18:09.004Z,-6.60
2019-01-21T03:20:46.914Z,-6.60
2019-01-21T03:23:42.211Z,-6.60
2019-01-21T03:26:22.872Z,-6.50
2019-01-21T03:29:03.016Z,-6.50
2019-01-21T03:31:40.196Z,-6.50
2019-01-21T03:34:37.908Z,-6.40
2019-01-21T03:37:12.041Z,-6.50
2019-01-21T03:40:15.149Z,-6.40
2019-01-21T03:42:46.779Z,-6.40
2019-01-21T03:45:30.137Z,-6.30
2019-01-21T03:48:01.921Z,-6.30
2019-01-21T03:50:48.623Z,-6.20
2019-01-21T03:53:23.081Z,-6.20
2019-01-21T03:55:55.035Z,-6.10
2019-01-21T03:58:44.462Z,-6.00
2019-01-21T04:01:41.997Z,-6.00
2019-01-21T04:04:28.466Z,-5.90
2019-01-21T04:07:00.119Z,-5.80
2019-01-21T04:09:53.085Z,-5.80
2019-01-21T04:12:33.679Z,-5.80
2019-01-21T04:15:14.117Z,-5.70
2019-01-21T04:17:57.675Z,-5.70
2019-01-21T04:20:29.290Z,-5.70
2019-01-21T04:23:17.640Z,-5.60
2019-01-21T04:26:13.458Z,-5.60
2019-01-21T04:28:45.311Z,-5.60
2019-01-21T04:31:43.631Z,-5.60
2019-01-21T04:34:21.085Z,-5.50
2019-01-21T04:36:58.407Z,-5.50
2019-01-21T04:39:35.766Z,-5.40
2019-01-21T04:42:22.523Z,-5.40
2019-01-21T04:45:08.993Z,-5.40
2019-01-21T04:47:52.623Z,-5.40
2019-01-21T04:50:24.274Z,-5.40
2019-01-21T04:53:16.838Z,-5.40
2019-01-21T04:55:48.486Z,-5.30
2019-01-21T04:58:29.340Z,-5.40
2019-01-21T05:01:03.684Z,-5.40
2019-01-21T05:03:38.332Z,-5.40
2019-01-21T05:06:10.376Z,-5.40
2019-01-21T05:09:04.601Z,-5.40
2019-01-21T05:11:36.242Z,-5.40
2019-01-21T05:14:14.191Z,-5.40
2019-01-21T05:17:11.287Z,-5.40
2019-01-21T05:19:49.009Z,-5.40
2019-01-21T05:22:38.868Z,-5.40
2019-01-21T05:25:27.362Z,-5.40
2019-01-21T05:28:26.178Z,-5.40
2019-01-21T05:31:21.631Z,-5.40
2019-01-21T05:34:12.781Z,-5.40
2019-01-21T05:36:50.227Z,-5.40
2019-01-21T05:39:36.642Z,-5.30
2019-01-21T05:42:32.480Z,-5.30
2019-01-21T05:45:09.689Z,-5.30
2019-01-21T05:48:05.354Z,-5.40
2019-01-21T05:50:56.591Z,-5.40
2019-01-21T05:54:01.756Z,-5.40
2019-01-21T05:56:48.537Z,-5.40
2019-01-21T05:59:28.969Z,-5.40
2019-01-21T06:02:12.383Z,-5.40
2019-01-21T06:04:59.234Z,-5.30
2019-01-21T06:07:50.221Z,-5.30
2019-01-21T06:10:39.869Z,-5.30
2019-01-21T06:13:11.513Z,-5.30
2019-01-21T06:16:15.843Z,-5.30
2019-01-21T06:19:02.606Z,-5.30
2019-01-21T06:21:52.070Z,-5.30
2019-01-21T06:24:26.477Z,-5.40
2019-01-21T06:27:19.233Z,-5.30
2019-01-21T06:29:59.787Z,-5.30
2019-01-21T06:32:37.404Z,-5.40
2019-01-21T06:35:15.121Z,-5.40
2019-01-21T06:37:55.264Z,-5.30
2019-01-21T06:40:32.638Z,-5.30
2019-01-21T06:43:09.895Z,-5.30
2019-01-21T06:45:41.546Z,-5.30
2019-01-21T06:48:24.970Z,-5.20
2019-01-21T06:50:56.620Z,-5.00
2019-01-21T06:53:30.994Z,-5.00
2019-01-21T06:56:20.867Z,-5.00
2019-01-21T06:59:12.040Z,-5.00
2019-01-21T07:01:52.281Z,-5.00
2019-01-21T07:04:40.348Z,-4.90
2019-01-21T07:07:26.946Z,-4.80
2019-01-21T07:10:10.409Z,-4.80
2019-01-21T07:12:58.670Z,-5.00
2019-01-21T07:15:49.739Z,-5.10
2019-01-21T07:18:37.647Z,-5.10
2019-01-21T07:21:12.155Z,-5.10
2019-01-21T07:23:59.045Z,-5.20
2019-01-21T07:26:56.180Z,-5.20
2019-01-21T07:29:36.542Z,-5.20
2019-01-21T07:32:13.888Z,-5.20
2019-01-21T07:34:45.541Z,-5.20
2019-01-21T07:37:31.814Z,-5.10
2019-01-21T07:40:06.393Z,-5.10
2019-01-21T07:42:43.955Z,-5.00
2019-01-21T07:45:24.438Z,-5.10
2019-01-21T07:48:15.483Z,-5.00
2019-01-21T07:51:02.406Z,-5.10
2019-01-21T07:53:53.333Z,-5.00
2019-01-21T07:56:27.686Z,-5.00
2019-01-21T07:59:23.563Z,-5.00
2019-01-21T08:02:01.141Z,-4.90
2019-01-21T08:04:52.594Z,-4.90
2019-01-21T08:07:36.187Z,-4.90
2019-01-21T08:10:30.360Z,-4.90
2019-01-21T08:13:01.994Z,-4.90
2019-01-21T08:15:45.486Z,-4.90
2019-01-21T08:18:31.996Z,-4.80
2019-01-21T08:21:12.737Z,-4.80
2019-01-21T08:24:04.231Z,-4.70
2019-01-21T08:27:02.930Z,-4.60
2019-01-21T08:29:40.592Z,-4.60
2019-01-21T08:32:18.217Z,-4.60
2019-01-21T08:34:52.551Z,-4.50
2019-01-21T08:37:45.305Z,-4.50
2019-01-21T08:40:16.951Z,-4.50
2019-01-21T08:42:51.312Z,-4.50
2019-01-21T08:45:28.898Z,-4.50
2019-01-21T08:48:03.320Z,-4.50
2019-01-21T08:50:41.035Z,-4.40
2019-01-21T08:53:24.804Z,-4.40
2019-01-21T08:56:23.826Z,-4.40
2019-01-21T08:59:10.376Z,-4.30
2019-01-21T09:01:44.499Z,-4.30
2019-01-21T09:04:21.690Z,-4.30
2019-01-21T09:06:53.259Z,-4.20
2019-01-21T09:09:27.648Z,-4.10
2019-01-21T09:12:05.131Z,-4.10
2019-01-21T09:14:56.313Z,-4.10
2019-01-21T09:17:43.014Z,-4.00
2019-01-21T09:20:40.497Z,-3.90
2019-01-21T09:23:31.508Z,-3.90
2019-01-21T09:26:21.170Z,-3.80
2019-01-21T09:29:08.043Z,-3.80
2019-01-21T09:31:51.607Z,-3.80
2019-01-21T09:34:41.303Z,-3.70
2019-01-21T09:37:35.641Z,-3.60
2019-01-21T09:40:29.674Z,-3.60
2019-01-21T09:43:01.279Z,-3.60
2019-01-21T09:45:33.366Z,-3.70
2019-01-21T09:48:01.554Z,-3.70
2019-01-21T09:50:30.424Z,-3.60
2019-01-21T09:52:59.406Z,-3.50
2019-01-21T09:55:28.511Z,-3.40
2019-01-21T09:58:06.227Z,-3.40
2019-01-21T10:00:34.936Z,-3.40
2019-01-21T10:03:05.503Z,-3.30
2019-01-21T10:05:36.016Z,-3.30
2019-01-21T10:08:16.408Z,-3.20
2019-01-21T10:11:03.172Z,-3.20
2019-01-21T10:13:32.818Z,-3.20
2019-01-21T10:16:04.456Z,-3.20
2019-01-21T10:18:39.148Z,-3.20
2019-01-21T10:21:41.143Z,-3.20
2019-01-21T10:24:30.673Z,-3.20
2019-01-21T10:27:20.238Z,-3.10
2019-01-21T10:30:08.184Z,-3.10
2019-01-21T10:32:51.675Z,-3.10
2019-01-21T10:35:38.273Z,-3.00
2019-01-21T10:38:15.603Z,-3.00
2019-01-21T10:41:02.268Z,-3.00
2019-01-21T10:43:36.823Z,-3.00
2019-01-21T10:46:28.167Z,-2.90
2019-01-21T10:49:05.459Z,-2.90
2019-01-21T10:51:53.411Z,-2.80
2019-01-21T10:54:36.423Z,-2.90
2019-01-21T10:57:13.215Z,-2.90
2019-01-21T10:59:53.793Z,-2.80
2019-01-21T11:02:37.480Z,-2.80
2019-01-21T11:05:15.097Z,-2.70
2019-01-21T11:08:06.284Z,-2.60
2019-01-21T11:11:02.343Z,-2.60
2019-01-21T11:13:45.767Z,-2.50
2019-01-21T11:16:26.442Z,-2.40
2019-01-21T11:19:12.523Z,-2.50
2019-01-21T11:21:44.166Z,-2.40
2019-01-21T11:24:42.524Z,-2.40
2019-01-21T11:27:28.392Z,-2.50
2019-01-21T11:30:22.811Z,-2.40
2019-01-21T11:33:06.400Z,-2.40
2019-01-21T11:35:46.867Z,-2.40
2019-01-21T11:38:24.182Z,-2.40
2019-01-21T11:41:16.811Z,-2.30
2019-01-21T11:43:54.007Z,-2.30
2019-01-21T11:46:40.475Z,-2.30
2019-01-21T11:49:12.121Z,-2.30
2019-01-21T11:52:09.375Z,-2.30
2019-01-21T11:54:52.678Z,-2.30
2019-01-21T11:57:43.827Z,-2.20
2019-01-21T12:00:18.186Z,-2.10
2019-01-21T12:02:49.813Z,-2.00
2019-01-21T12:05:21.468Z,-1.90
2019-01-21T12:08:07.924Z,-1.90
2019-01-21T12:10:54.399Z,-1.80
2019-01-21T12:13:54.544Z,-1.80
2019-01-21T12:16:57.775Z,-1.70
2019-01-21T12:19:35.226Z,-1.70
2019-01-21T12:22:41.883Z,-1.70
2019-01-21T12:25:28.598Z,-1.80
2019-01-21T12:28:22.890Z,-1.80
2019-01-21T12:30:57.360Z,-1.80
2019-01-21T12:33:41.070Z,-1.80
2019-01-21T12:36:15.650Z,-1.80
2019-01-21T12:38:59.071Z,-1.80
2019-01-21T12:41:54.555Z,-1.80
2019-01-21T12:44:45.667Z,-1.80
2019-01-21T12:47:35.332Z,-1.80
2019-01-21T12:50:24.151Z,-1.70
2019-01-21T12:53:26.040Z,-1.70
2019-01-21T12:55:57.686Z,-1.70
2019-01-21T12:58:29.299Z,-1.60
2019-01-21T13:01:00.917Z,-1.50
2019-01-21T13:03:50.443Z,-1.50
2019-01-21T13:06:46.080Z,-1.50
2019-01-21T13:09:29.008Z,-1.50
2019-01-21T13:12:05.815Z,-1.50
2019-01-21T13:14:52.559Z,-1.50
2019-01-21T13:17:24.174Z,-1.50
2019-01-21T13:20:30.643Z,-1.40
2019-01-21T13:23:02.611Z,-1.40
2019-01-21T13:25:46.098Z,-1.30
2019-01-21T13:28:23.288Z,-1.40
2019-01-21T13:31:13.058Z,-1.50
2019-01-21T13:33:50.522Z,-1.50
2019-01-21T13:36:28.142Z,-1.50
2019-01-21T13:39:08.855Z,-1.50
2019-01-21T13:41:43.508Z,-1.50
2019-01-21T13:44:20.862Z,-1.50
2019-01-21T13:47:14.578Z,-1.40
2019-01-21T13:49:55.077Z,-1.50
2019-01-21T13:52:32.408Z,-1.40
2019-01-21T13:55:18.958Z,-1.40
2019-01-21T13:57:53.332Z,-1.30
2019-01-21T14:00:25.015Z,-1.30
2019-01-21T14:03:14.574Z,-1.40
2019-01-21T14:06:02.552Z,-1.30
2019-01-21T14:08:39.926Z,-1.30
2019-01-21T14:11:14.627Z,-1.30
2019-01-21T14:13:49.505Z,-1.30
2019-01-21T14:16:32.915Z,-1.30
2019-01-21T14:19:10.288Z,-1.30
2019-01-21T14:21:58.167Z,-1.30
2019-01-21T14:24:55.451Z,-1.30
2019-01-21T14:27:43.524Z,-1.20
2019-01-21T14:30:21.074Z,-1.20
2019-01-21T14:33:10.379Z,-1.20
2019-01-21T14:35:53.839Z,-1.20
2019-01-21T14:38:25.470Z,-1.30
2019-01-21T14:41:12.406Z,-1.30
2019-01-21T14:44:17.367Z,-1.30
2019-01-21T14:47:19.185Z,-1.30
2019-01-21T14:49:56.625Z,-1.40
2019-01-21T14:52:46.315Z,-1.40
2019-01-21T14:55:36.110Z,-1.40
2019-01-21T14:58:10.779Z,-1.40
2019-01-21T15:01:04.647Z,-1.40
2019-01-21T15:03:51.196Z,-1.40
2019-01-21T15:06:31.332Z,-1.30
2019-01-21T15:09:15.036Z,-1.30
2019-01-21T15:12:21.685Z,-1.40
2019-01-21T15:15:05.066Z,-1.40
2019-01-21T15:17:48.657Z,-1.40
2019-01-21T15:20:20.364Z,-1.50
2019-01-21T15:22:51.943Z,-1.50
2019-01-21T15:25:38.828Z,-1.60
2019-01-21T15:28:33.334Z,-1.60
2019-01-21T15:31:32.329Z,-1.60
2019-01-21T15:34:23.429Z,-1.50
2019-01-21T15:37:03.897Z,-1.60
2019-01-21T15:39:44.626Z,-1.60
2019-01-21T15:42:28.422Z,-1.60
2019-01-21T15:45:05.871Z,-1.60
2019-01-21T15:48:00.084Z,-1.60
2019-01-21T15:50:37.513Z,-1.70
2019-01-21T15:53:27.259Z,-1.70
2019-01-21T15:56:04.473Z,-1.70
2019-01-21T15:58:54.238Z,-1.70
2019-01-21T16:01:28.535Z,-1.70
2019-01-21T16:04:02.985Z,-1.80
2019-01-21T16:06:37.299Z,-1.80
2019-01-21T16:09:31.511Z,-1.90
2019-01-21T16:12:24.243Z,-1.90
2019-01-21T16:15:04.483Z,-1.90
2019-01-21T16:17:36.123Z,-1.90
2019-01-21T16:20:11.255Z,-1.80
2019-01-21T16:23:01.127Z,-1.80
2019-01-21T16:25:32.811Z,-1.80
2019-01-21T16:28:16.121Z,-1.80
2019-01-21T16:31:02.800Z,-1.80
2019-01-21T16:33:53.476Z,-1.80
2019-01-21T16:36:43.379Z,-1.90
2019-01-21T16:39:17.614Z,-2.00
2019-01-21T16:42:01.096Z,-2.00
2019-01-21T16:44:29.645Z,-2.00
2019-01-21T16:46:58.224Z,-2.00
2019-01-21T16:49:26.755Z,-2.00
2019-01-21T16:51:55.294Z,-2.00
2019-01-21T16:54:23.932Z,-2.10
2019-01-21T16:56:52.474Z,-2.10
2019-01-21T16:59:21.110Z,-2.00
2019-01-21T17:01:49.658Z,-2.00
2019-01-21T17:04:18.372Z,-2.00
2019-01-21T17:06:46.983Z,-2.00
2019-01-21T17:09:15.532Z,-2.00
2019-01-21T17:11:44.154Z,-2.00
2019-01-21T17:14:12.695Z,-2.10
2019-01-21T17:16:41.408Z,-2.10
2019-01-21T17:19:10.018Z,-2.10
2019-01-21T17:21:38.661Z,-2.00
2019-01-21T17:24:07.262Z,-1.90
2019-01-21T17:26:35.965Z,-1.80
2019-01-21T17:29:04.786Z,-1.80
2019-01-21T17:31:33.387Z,-1.80
2019-01-21T17:34:01.956Z,-1.80
2019-01-21T17:36:30.532Z,-1.70
2019-01-21T17:38:59.069Z,-1.60
2019-01-21T17:41:27.684Z,-1.70
2019-01-21T17:43:56.258Z,-1.80
2019-01-21T17:46:24.797Z,-1.70
2019-01-21T17:48:53.497Z,-1.70
2019-01-21T17:51:22.046Z,-1.70
2019-01-21T17:53:51.444Z,-1.80
2019-01-21T17:56:20.172Z,-1.70
2019-01-21T17:58:48.731Z,-1.70
2019-01-21T18:01:17.274Z,-1.70
2019-01-21T18:03:45.824Z,-1.60
2019-01-21T18:06:14.528Z,-1.60
2019-01-21T18:08:43.075Z,-1.60
2019-01-21T18:11:11.628Z,-1.70
2019-01-21T18:13:40.191Z,-1.90
2019-01-21T18:16:08.867Z,-1.90
2019-01-21T18:18:37.546Z,-1.90
2019-01-21T18:21:07.473Z,-1.80
2019-01-21T18:23:36.190Z,-1.70
2019-01-21T18:26:05.077Z,-1.70
2019-01-21T18:28:33.716Z,-1.70
2019-01-21T18:31:02.332Z,-1.60
2019-01-21T18:33:30.888Z,-1.60
2019-01-21T18:35:59.662Z,-1.70
2019-01-21T18:38:28.299Z,-1.70
2019-01-21T18:40:56.916Z,-1.70
2019-01-21T18:43:25.894Z,-1.80
2019-01-21T18:45:54.467Z,-1.90
2019-01-21T18:48:23.146Z,-1.90
2019-01-21T18:50:51.675Z,-2.00
2019-01-21T18:53:20.240Z,-2.00
2019-01-21T18:55:48.847Z,-1.90
2019-01-21T18:58:17.455Z,-1.90
2019-01-21T19:00:46.020Z,-2.00
2019-01-21T19:03:14.565Z,-2.10
2019-01-21T19:05:43.177Z,-2.10
2019-01-21T19:08:11.821Z,-2.20
2019-01-21T19:10:40.423Z,-2.20
2019-01-21T19:13:08.963Z,-2.30
2019-01-21T19:15:37.533Z,-2.30
2019-01-21T19:18:06.207Z,-2.30
2019-01-21T19:20:34.825Z,-2.40
2019-01-21T19:23:03.528Z,-2.40
2019-01-21T19:25:32.211Z,-2.40
2019-01-21T19:28:00.776Z,-2.40
2019-01-21T19:30:29.451Z,-2.50
2019-01-21T19:32:58.106Z,-2.50
2019-01-21T19:35:32.237Z,-2.40
2019-01-21T19:38:00.822Z,-2.40
2019-01-21T19:40:29.414Z,-2.50
2019-01-21T19:42:58.023Z,-2.50
2019-01-21T19:45:26.742Z,-2.50
2019-01-21T19:47:55.360Z,-2.60
2019-01-21T19:50:24.655Z,-2.60
2019-01-21T19:52:53.259Z,-2.60
2019-01-21T19:55:28.335Z,-2.60
2019-01-21T19:57:56.970Z,-2.50
2019-01-21T20:00:26.058Z,-2.50
2019-01-21T20:02:54.670Z,-2.50
2019-01-21T20:05:23.379Z,-2.50
2019-01-21T20:07:52.868Z,-2.60
2019-01-21T20:10:23.618Z,-2.60
2019-01-21T20:12:52.223Z,-2.60
2019-01-21T20:15:20.906Z,-2.60
2019-01-21T20:17:49.603Z,-2.60
2019-01-21T20:20:33.230Z,-2.60
2019-01-21T20:23:01.928Z,-2.60
2019-01-21T20:25:30.624Z,-2.60
2019-01-21T20:27:59.235Z,-2.60
2019-01-21T20:30:27.935Z,-2.60
2019-01-21T20:32:56.545Z,-2.60
2019-01-21T20:35:25.242Z,-2.70
2019-01-21T20:37:53.857Z,-2.70
2019-01-21T20:40:27.521Z,-2.70
2019-01-21T20:42:56.139Z,-2.70
2019-01-21T20:45:24.948Z,-2.70
2019-01-21T20:47:53.625Z,-2.70
2019-01-21T20:50:31.202Z,-2.60
2019-01-21T20:52:59.818Z,-2.60
2019-01-21T20:55:28.607Z,-2.60
2019-01-21T20:57:57.312Z,-2.70
2019-01-21T21:00:28.312Z,-2.70
2019-01-21T21:02:57.110Z,-2.80
2019-01-21T21:05:25.784Z,-2.70
2019-01-21T21:07:54.467Z,-2.70
2019-01-21T21:10:23.171Z,-2.80
2019-01-21T21:12:51.783Z,-2.80
2019-01-21T21:15:23.403Z,-2.80
2019-01-21T21:17:51.968Z,-2.80
2019-01-21T21:20:20.647Z,-2.80
2019-01-21T21:22:49.591Z,-2.70
2019-01-21T21:25:19.172Z,-2.80
2019-01-21T21:27:48.055Z,-2.70
2019-01-21T21:30:19.503Z,-2.80
2019-01-21T21:32:48.144Z,-2.80
2019-01-21T21:35:16.833Z,-2.90
2019-01-21T21:37:45.507Z,-2.90
2019-01-21T21:40:16.585Z,-2.90
2019-01-21T21:42:45.261Z,-3.00
2019-01-21T21:45:16.567Z,-2.90
2019-01-21T21:47:45.191Z,-2.90
2019-01-21T21:50:19.338Z,-2.90
2019-01-21T21:52:47.969Z,-2.90
2019-01-21T21:55:16.638Z,-2.80
2019-01-21T21:57:45.347Z,-2.70
2019-01-21T22:00:22.427Z,-2.80
2019-01-21T22:02:51.049Z,-2.80
2019-01-21T22:05:19.943Z,-2.80
2019-01-21T22:07:48.641Z,-2.80
2019-01-21T22:10:21.006Z,-2.80
2019-01-21T22:12:49.935Z,-2.90
2019-01-21T22:15:20.527Z,-2.90
2019-01-21T22:17:49.123Z,-2.90
2019-01-21T22:20:22.412Z,-2.90
2019-01-21T22:22:51.095Z,-2.90
2019-01-21T22:25:20.099Z,-2.90
2019-01-21T22:27:48.716Z,-2.80
2019-01-21T22:30:20.098Z,-2.80
2019-01-21T22:32:48.647Z,-2.80
2019-01-21T22:35:17.276Z,-2.80
2019-01-21T22:37:46.350Z,-2.80
2019-01-21T22:40:17.131Z,-2.90
2019-01-21T22:42:45.694Z,-2.90
2019-01-21T22:45:15.993Z,-2.90
2019-01-21T22:47:44.659Z,-3.00
2019-01-21T22:50:15.702Z,-3.00
2019-01-21T22:52:44.316Z,-3.00
2019-01-21T22:55:14.602Z,-2.90
2019-01-21T22:57:43.294Z,-3.00
2019-01-21T23:00:41.887Z,-2.90
2019-01-21T23:03:10.782Z,-2.90
2019-01-21T23:05:39.471Z,-2.90
2019-01-21T23:08:08.075Z,-2.90
2019-01-21T23:10:37.182Z,-2.90
2019-01-21T23:13:05.897Z,-2.90
2019-01-21T23:15:34.512Z,-2.90
2019-01-21T23:18:04.478Z,-2.90
2019-01-21T23:20:33.125Z,-2.90
2019-01-21T23:23:01.806Z,-2.90
2019-01-21T23:25:30.520Z,-2.90
2019-01-21T23:27:59.067Z,-2.90
2019-01-21T23:30:27.748Z,-2.80
2019-01-21T23:32:56.381Z,-2.80
2019-01-21T23:35:24.991Z,-2.80
2019-01-21T23:37:53.900Z,-2.80
2019-01-21T23:40:22.542Z,-2.80
2019-01-21T23:42:51.211Z,-2.80
2019-01-21T23:45:19.887Z,-2.80
2019-01-21T23:47:48.464Z,-2.80
2019-01-21T23:50:17.663Z,-2.80
2019-01-21T23:52:46.271Z,-2.80
2019-01-21T23:55:15.076Z,-2.80
2019-01-21T23:57:43.692Z,-2.80
